sensor_id;sensor_type;location;lat;lon;timestamp;pressure;altitude;pressure_sealevel;temperature;humidity
32197;BME280;18697;42.770;23.400;2023-10-19T00:01:13;95670.75;;;11.87;72.64
32197;BME280;18697;42.770;23.400;2023-10-19T00:03:40;95677.00;;;11.97;72.82
32197;BME280;18697;42.770;23.400;2023-10-19T00:06:06;95676.25;;;11.96;72.42
32197;BME280;18697;42.770;23.400;2023-10-19T00:08:31;95667.91;;;11.96;72.19
32197;BME280;18697;42.770;23.400;2023-10-19T00:11:10;95668.06;;;11.93;71.78
32197;BME280;18697;42.770;23.400;2023-10-19T00:13:38;95662.88;;;11.43;72.94
32197;BME280;18697;42.770;23.400;2023-10-19T00:16:07;95667.22;;;11.35;73.53
32197;BME280;18697;42.770;23.400;2023-10-19T00:18:52;95661.97;;;11.37;73.25
32197;BME280;18697;42.770;23.400;2023-10-19T00:21:18;95661.34;;;11.33;73.35
32197;BME280;18697;42.770;23.400;2023-10-19T00:23:44;95664.28;;;11.30;73.59
32197;BME280;18697;42.770;23.400;2023-10-19T00:26:12;95647.59;;;11.30;73.75
32197;BME280;18697;42.770;23.400;2023-10-19T00:28:44;95652.53;;;11.35;73.50
32197;BME280;18697;42.770;23.400;2023-10-19T00:31:12;95655.78;;;11.33;72.68
32197;BME280;18697;42.770;23.400;2023-10-19T00:33:38;95651.78;;;11.25;72.54
32197;BME280;18697;42.770;23.400;2023-10-19T00:36:08;95648.75;;;11.14;72.67
32197;BME280;18697;42.770;23.400;2023-10-19T00:38:37;95648.94;;;11.10;73.26
32197;BME280;18697;42.770;23.400;2023-10-19T00:41:13;95651.25;;;11.12;73.22
32197;BME280;18697;42.770;23.400;2023-10-19T00:43:43;95643.53;;;11.07;72.47
32197;BME280;18697;42.770;23.400;2023-10-19T00:46:13;95647.22;;;11.13;72.45
32197;BME280;18697;42.770;23.400;2023-10-19T00:49:08;95639.16;;;11.15;72.36
32197;BME280;18697;42.770;23.400;2023-10-19T00:51:43;95645.31;;;11.19;71.81
32197;BME280;18697;42.770;23.400;2023-10-19T00:54:21;95635.75;;;11.20;71.37
32197;BME280;18697;42.770;23.400;2023-10-19T00:57:18;95650.28;;;11.15;71.17
32197;BME280;18697;42.770;23.400;2023-10-19T00:59:46;95640.13;;;11.12;71.02
32197;BME280;18697;42.770;23.400;2023-10-19T01:02:18;95646.91;;;11.11;71.04
32197;BME280;18697;42.770;23.400;2023-10-19T01:04:48;95644.94;;;11.02;70.76
32197;BME280;18697;42.770;23.400;2023-10-19T01:07:31;95649.09;;;11.07;70.62
32197;BME280;18697;42.770;23.400;2023-10-19T01:10:03;95650.78;;;11.04;70.28
32197;BME280;18697;42.770;23.400;2023-10-19T01:12:31;95649.41;;;11.00;70.17
32197;BME280;18697;42.770;23.400;2023-10-19T01:17:36;95648.81;;;10.96;69.53
32197;BME280;18697;42.770;23.400;2023-10-19T01:20:07;95649.88;;;10.89;69.31
32197;BME280;18697;42.770;23.400;2023-10-19T01:28:27;95650.22;;;10.82;69.72
32197;BME280;18697;42.770;23.400;2023-10-19T01:31:22;95645.56;;;10.79;69.79
32197;BME280;18697;42.770;23.400;2023-10-19T01:33:55;95643.13;;;10.72;69.76
32197;BME280;18697;42.770;23.400;2023-10-19T01:36:23;95649.44;;;10.72;69.92
32197;BME280;18697;42.770;23.400;2023-10-19T01:38:49;95645.91;;;10.72;69.71
32197;BME280;18697;42.770;23.400;2023-10-19T01:41:14;95639.72;;;10.68;69.36
32197;BME280;18697;42.770;23.400;2023-10-19T01:43:48;95646.06;;;10.68;68.87
32197;BME280;18697;42.770;23.400;2023-10-19T01:46:15;95658.84;;;10.66;68.10
32197;BME280;18697;42.770;23.400;2023-10-19T01:48:49;95653.63;;;10.22;69.08
32197;BME280;18697;42.770;23.400;2023-10-19T01:51:21;95660.25;;;10.43;68.78
32197;BME280;18697;42.770;23.400;2023-10-19T01:53:48;95659.81;;;10.35;68.85
32197;BME280;18697;42.770;23.400;2023-10-19T01:56:15;95659.34;;;10.37;68.95
32197;BME280;18697;42.770;23.400;2023-10-19T01:58:43;95656.72;;;10.33;69.51
32197;BME280;18697;42.770;23.400;2023-10-19T02:01:09;95654.34;;;10.04;70.39
32197;BME280;18697;42.770;23.400;2023-10-19T02:03:38;95650.94;;;10.09;70.26
32197;BME280;18697;42.770;23.400;2023-10-19T02:06:11;95649.25;;;10.12;70.76
32197;BME280;18697;42.770;23.400;2023-10-19T02:09:08;95652.06;;;10.21;71.29
32197;BME280;18697;42.770;23.400;2023-10-19T02:11:53;95648.19;;;10.18;71.60
32197;BME280;18697;42.770;23.400;2023-10-19T02:14:21;95652.34;;;10.14;71.66
32197;BME280;18697;42.770;23.400;2023-10-19T02:16:48;95659.94;;;10.23;70.92
32197;BME280;18697;42.770;23.400;2023-10-19T02:19:18;95663.63;;;10.19;69.19
32197;BME280;18697;42.770;23.400;2023-10-19T02:21:55;95669.19;;;10.19;67.90
32197;BME280;18697;42.770;23.400;2023-10-19T02:24:24;95671.78;;;10.14;68.30
32197;BME280;18697;42.770;23.400;2023-10-19T02:26:53;95677.31;;;10.05;69.15
32197;BME280;18697;42.770;23.400;2023-10-19T02:29:19;95669.88;;;9.93;69.03
32197;BME280;18697;42.770;23.400;2023-10-19T02:31:45;95661.66;;;9.80;69.09
32197;BME280;18697;42.770;23.400;2023-10-19T02:34:12;95652.84;;;9.63;69.87
32197;BME280;18697;42.770;23.400;2023-10-19T02:36:41;95655.78;;;9.60;70.54
32197;BME280;18697;42.770;23.400;2023-10-19T02:39:08;95650.69;;;9.58;70.97
32197;BME280;18697;42.770;23.400;2023-10-19T02:41:35;95651.47;;;9.59;71.27
32197;BME280;18697;42.770;23.400;2023-10-19T02:44:07;95650.69;;;9.58;71.34
32197;BME280;18697;42.770;23.400;2023-10-19T02:46:37;95663.00;;;9.57;71.90
32197;BME280;18697;42.770;23.400;2023-10-19T02:49:04;95644.69;;;9.60;72.36
32197;BME280;18697;42.770;23.400;2023-10-19T02:51:35;95659.31;;;9.60;72.24
32197;BME280;18697;42.770;23.400;2023-10-19T02:54:02;95653.78;;;9.60;70.80
32197;BME280;18697;42.770;23.400;2023-10-19T02:56:28;95651.91;;;9.57;70.39
32197;BME280;18697;42.770;23.400;2023-10-19T02:58:55;95650.75;;;9.36;70.65
32197;BME280;18697;42.770;23.400;2023-10-19T03:01:29;95648.72;;;9.28;71.49
32197;BME280;18697;42.770;23.400;2023-10-19T03:03:57;95633.72;;;9.16;72.08
32197;BME280;18697;42.770;23.400;2023-10-19T03:06:29;95642.63;;;9.11;72.74
32197;BME280;18697;42.770;23.400;2023-10-19T03:09:07;95641.06;;;9.10;73.34
32197;BME280;18697;42.770;23.400;2023-10-19T03:11:42;95652.53;;;9.21;73.46
32197;BME280;18697;42.770;23.400;2023-10-19T03:14:09;95634.81;;;9.18;72.59
32197;BME280;18697;42.770;23.400;2023-10-19T03:16:36;95644.34;;;8.86;72.80
32197;BME280;18697;42.770;23.400;2023-10-19T03:19:02;95649.00;;;8.99;72.43
32197;BME280;18697;42.770;23.400;2023-10-19T03:21:29;95650.94;;;9.11;72.26
32197;BME280;18697;42.770;23.400;2023-10-19T03:23:59;95651.75;;;9.20;71.62
32197;BME280;18697;42.770;23.400;2023-10-19T03:26:37;95651.88;;;9.17;71.15
32197;BME280;18697;42.770;23.400;2023-10-19T03:29:04;95658.19;;;8.86;71.65
32197;BME280;18697;42.770;23.400;2023-10-19T03:31:40;95656.97;;;8.66;71.82
32197;BME280;18697;42.770;23.400;2023-10-19T03:34:13;95645.31;;;8.49;73.00
32197;BME280;18697;42.770;23.400;2023-10-19T03:36:39;95647.44;;;8.45;74.05
32197;BME280;18697;42.770;23.400;2023-10-19T03:39:05;95652.66;;;8.43;74.12
32197;BME280;18697;42.770;23.400;2023-10-19T03:41:44;95620.59;;;8.33;74.90
32197;BME280;18697;42.770;23.400;2023-10-19T03:44:11;95639.13;;;8.45;75.77
32197;BME280;18697;42.770;23.400;2023-10-19T03:46:52;95639.84;;;8.58;74.49
32197;BME280;18697;42.770;23.400;2023-10-19T03:49:19;95633.59;;;8.67;72.97
32197;BME280;18697;42.770;23.400;2023-10-19T03:51:45;95643.06;;;8.78;72.53
32197;BME280;18697;42.770;23.400;2023-10-19T03:54:47;95637.66;;;8.75;70.21
32197;BME280;18697;42.770;23.400;2023-10-19T03:57:15;95630.50;;;8.65;70.36
32197;BME280;18697;42.770;23.400;2023-10-19T03:59:54;95631.66;;;8.54;71.37
32197;BME280;18697;42.770;23.400;2023-10-19T04:02:25;95635.78;;;8.50;71.96
32197;BME280;18697;42.770;23.400;2023-10-19T04:04:55;95627.47;;;8.50;72.52
32197;BME280;18697;42.770;23.400;2023-10-19T04:07:22;95627.56;;;8.59;72.63
32197;BME280;18697;42.770;23.400;2023-10-19T04:09:53;95626.00;;;8.58;72.66
32197;BME280;18697;42.770;23.400;2023-10-19T04:12:38;95620.00;;;8.38;72.21
32197;BME280;18697;42.770;23.400;2023-10-19T04:15:07;95631.59;;;8.45;72.65
32197;BME280;18697;42.770;23.400;2023-10-19T04:17:45;95640.56;;;8.49;72.47
32197;BME280;18697;42.770;23.400;2023-10-19T04:20:11;95638.59;;;8.37;71.78
32197;BME280;18697;42.770;23.400;2023-10-19T04:22:49;95636.94;;;8.40;72.28
32197;BME280;18697;42.770;23.400;2023-10-19T04:25:16;95635.59;;;8.44;72.16
32197;BME280;18697;42.770;23.400;2023-10-19T04:27:44;95636.16;;;8.39;72.48
32197;BME280;18697;42.770;23.400;2023-10-19T04:30:13;95632.81;;;8.44;72.41
32197;BME280;18697;42.770;23.400;2023-10-19T04:32:42;95642.34;;;8.43;72.45
32197;BME280;18697;42.770;23.400;2023-10-19T04:35:12;95638.09;;;8.51;72.54
32197;BME280;18697;42.770;23.400;2023-10-19T04:37:53;95627.56;;;8.59;72.73
32197;BME280;18697;42.770;23.400;2023-10-19T04:40:20;95622.22;;;8.65;72.52
32197;BME280;18697;42.770;23.400;2023-10-19T04:42:46;95626.25;;;8.73;72.06
32197;BME280;18697;42.770;23.400;2023-10-19T04:45:12;95622.47;;;8.79;72.21
32197;BME280;18697;42.770;23.400;2023-10-19T04:47:38;95624.00;;;8.80;72.43
32197;BME280;18697;42.770;23.400;2023-10-19T04:50:05;95622.19;;;8.86;71.92
32197;BME280;18697;42.770;23.400;2023-10-19T04:52:31;95618.16;;;8.78;71.18
32197;BME280;18697;42.770;23.400;2023-10-19T04:54:57;95603.59;;;8.65;71.28
32197;BME280;18697;42.770;23.400;2023-10-19T04:57:43;95607.00;;;8.69;71.58
32197;BME280;18697;42.770;23.400;2023-10-19T05:00:09;95612.41;;;8.73;71.42
32197;BME280;18697;42.770;23.400;2023-10-19T05:02:38;95618.00;;;8.82;71.38
32197;BME280;18697;42.770;23.400;2023-10-19T05:05:04;95615.56;;;8.84;71.26
32197;BME280;18697;42.770;23.400;2023-10-19T05:07:29;95619.22;;;8.81;70.93
32197;BME280;18697;42.770;23.400;2023-10-19T05:09:55;95606.19;;;8.60;70.23
32197;BME280;18697;42.770;23.400;2023-10-19T05:12:20;95614.94;;;8.58;70.82
32197;BME280;18697;42.770;23.400;2023-10-19T05:14:46;95625.22;;;8.57;71.23
32197;BME280;18697;42.770;23.400;2023-10-19T05:17:12;95627.69;;;8.55;71.59
32197;BME280;18697;42.770;23.400;2023-10-19T05:19:39;95624.41;;;8.48;70.85
32197;BME280;18697;42.770;23.400;2023-10-19T05:22:06;95625.22;;;8.57;70.98
32197;BME280;18697;42.770;23.400;2023-10-19T05:24:32;95623.44;;;8.64;71.13
32197;BME280;18697;42.770;23.400;2023-10-19T05:26:58;95619.63;;;8.70;71.04
32197;BME280;18697;42.770;23.400;2023-10-19T05:29:23;95623.03;;;8.74;71.65
32197;BME280;18697;42.770;23.400;2023-10-19T05:31:50;95627.34;;;8.75;71.67
32197;BME280;18697;42.770;23.400;2023-10-19T05:34:22;95627.22;;;8.79;71.06
32197;BME280;18697;42.770;23.400;2023-10-19T05:36:47;95631.09;;;8.81;70.81
32197;BME280;18697;42.770;23.400;2023-10-19T05:39:16;95631.34;;;8.74;71.99
32197;BME280;18697;42.770;23.400;2023-10-19T05:41:42;95639.59;;;8.96;71.60
32197;BME280;18697;42.770;23.400;2023-10-19T05:44:08;95646.28;;;9.08;71.30
32197;BME280;18697;42.770;23.400;2023-10-19T05:46:33;95643.06;;;9.09;71.43
32197;BME280;18697;42.770;23.400;2023-10-19T05:48:58;95645.38;;;9.11;72.52
32197;BME280;18697;42.770;23.400;2023-10-19T05:51:24;95641.97;;;9.07;73.27
32197;BME280;18697;42.770;23.400;2023-10-19T05:53:50;95641.56;;;9.17;73.80
32197;BME280;18697;42.770;23.400;2023-10-19T05:56:26;95654.34;;;9.15;73.69
32197;BME280;18697;42.770;23.400;2023-10-19T05:58:51;95637.66;;;9.06;74.98
32197;BME280;18697;42.770;23.400;2023-10-19T06:01:19;95627.41;;;9.15;75.31
32197;BME280;18697;42.770;23.400;2023-10-19T06:03:45;95637.72;;;9.15;75.90
32197;BME280;18697;42.770;23.400;2023-10-19T06:06:10;95636.03;;;9.17;76.24
32197;BME280;18697;42.770;23.400;2023-10-19T06:08:35;95644.75;;;9.38;76.36
32197;BME280;18697;42.770;23.400;2023-10-19T06:11:01;95641.88;;;9.50;76.61
32197;BME280;18697;42.770;23.400;2023-10-19T06:13:26;95652.84;;;9.63;76.54
32197;BME280;18697;42.770;23.400;2023-10-19T06:15:52;95642.53;;;9.73;76.55
32197;BME280;18697;42.770;23.400;2023-10-19T06:18:17;95660.59;;;9.86;76.37
32197;BME280;18697;42.770;23.400;2023-10-19T06:20:46;95648.13;;;9.91;76.50
32197;BME280;18697;42.770;23.400;2023-10-19T06:23:13;95645.22;;;10.04;76.72
32197;BME280;18697;42.770;23.400;2023-10-19T06:25:39;95623.22;;;10.18;76.32
32197;BME280;18697;42.770;23.400;2023-10-19T06:28:05;95621.09;;;10.32;75.23
32197;BME280;18697;42.770;23.400;2023-10-19T06:30:30;95625.09;;;10.31;75.77
32197;BME280;18697;42.770;23.400;2023-10-19T06:33:00;95631.72;;;10.33;76.03
32197;BME280;18697;42.770;23.400;2023-10-19T06:35:27;95634.78;;;10.44;75.72
32197;BME280;18697;42.770;23.400;2023-10-19T06:37:53;95632.31;;;10.56;75.94
32197;BME280;18697;42.770;23.400;2023-10-19T06:40:22;95635.88;;;10.65;75.51
32197;BME280;18697;42.770;23.400;2023-10-19T06:42:48;95639.41;;;10.75;75.46
32197;BME280;18697;42.770;23.400;2023-10-19T06:45:15;95644.78;;;10.88;75.09
32197;BME280;18697;42.770;23.400;2023-10-19T06:47:45;95631.03;;;11.02;75.11
32197;BME280;18697;42.770;23.400;2023-10-19T06:50:12;95638.28;;;11.09;74.93
32197;BME280;18697;42.770;23.400;2023-10-19T06:52:38;95650.28;;;11.15;75.72
32197;BME280;18697;42.770;23.400;2023-10-19T06:55:05;95643.16;;;11.23;75.61
32197;BME280;18697;42.770;23.400;2023-10-19T06:57:31;95638.34;;;11.33;75.05
32197;BME280;18697;42.770;23.400;2023-10-19T06:59:59;95635.41;;;11.27;74.49
32197;BME280;18697;42.770;23.400;2023-10-19T07:02:28;95631.09;;;11.26;74.57
32197;BME280;18697;42.770;23.400;2023-10-19T07:04:54;95623.16;;;11.43;73.84
32197;BME280;18697;42.770;23.400;2023-10-19T07:07:19;95620.47;;;11.58;73.41
32197;BME280;18697;42.770;23.400;2023-10-19T07:09:44;95615.13;;;11.45;73.53
32197;BME280;18697;42.770;23.400;2023-10-19T07:12:10;95603.91;;;11.63;73.06
32197;BME280;18697;42.770;23.400;2023-10-19T07:14:35;95600.75;;;11.79;73.51
32197;BME280;18697;42.770;23.400;2023-10-19T07:17:02;95605.22;;;11.86;72.73
32197;BME280;18697;42.770;23.400;2023-10-19T07:19:27;95620.06;;;11.41;74.92
32197;BME280;18697;42.770;23.400;2023-10-19T07:21:54;95612.53;;;10.90;76.78
32197;BME280;18697;42.770;23.400;2023-10-19T07:24:25;95621.97;;;11.26;76.72
32197;BME280;18697;42.770;23.400;2023-10-19T07:26:51;95622.09;;;11.40;76.83
32197;BME280;18697;42.770;23.400;2023-10-19T07:29:30;95619.59;;;11.00;77.44
32197;BME280;18697;42.770;23.400;2023-10-19T07:31:56;95616.06;;;11.00;78.43
32197;BME280;18697;42.770;23.400;2023-10-19T07:34:23;95619.28;;;11.49;77.46
32197;BME280;18697;42.770;23.400;2023-10-19T07:36:53;95616.19;;;12.04;76.76
32197;BME280;18697;42.770;23.400;2023-10-19T07:39:19;95620.66;;;12.11;74.68
32197;BME280;18697;42.770;23.400;2023-10-19T07:41:45;95617.19;;;12.40;74.38
32197;BME280;18697;42.770;23.400;2023-10-19T07:44:12;95621.94;;;12.63;73.05
32197;BME280;18697;42.770;23.400;2023-10-19T07:46:37;95628.56;;;12.51;72.75
32197;BME280;18697;42.770;23.400;2023-10-19T07:49:03;95625.09;;;12.56;73.52
32197;BME280;18697;42.770;23.400;2023-10-19T07:51:28;95623.09;;;12.71;72.88
32197;BME280;18697;42.770;23.400;2023-10-19T07:53:55;95624.16;;;12.59;73.51
32197;BME280;18697;42.770;23.400;2023-10-19T07:56:21;95612.34;;;12.79;72.65
32197;BME280;18697;42.770;23.400;2023-10-19T07:58:47;95622.44;;;12.62;72.71
32197;BME280;18697;42.770;23.400;2023-10-19T08:01:12;95615.03;;;12.59;72.95
32197;BME280;18697;42.770;23.400;2023-10-19T08:03:38;95627.78;;;12.65;72.27
32197;BME280;18697;42.770;23.400;2023-10-19T08:06:05;95625.88;;;12.71;72.32
32197;BME280;18697;42.770;23.400;2023-10-19T08:08:30;95634.34;;;12.77;72.58
32197;BME280;18697;42.770;23.400;2023-10-19T08:10:59;95633.34;;;13.19;72.66
32197;BME280;18697;42.770;23.400;2023-10-19T08:13:26;95622.31;;;13.74;71.11
32197;BME280;18697;42.770;23.400;2023-10-19T08:15:52;95613.91;;;14.29;68.32
32197;BME280;18697;42.770;23.400;2023-10-19T08:18:17;95623.63;;;14.54;65.42
32197;BME280;18697;42.770;23.400;2023-10-19T08:20:43;95626.81;;;14.06;67.06
32197;BME280;18697;42.770;23.400;2023-10-19T08:23:11;95611.91;;;14.50;66.75
32197;BME280;18697;42.770;23.400;2023-10-19T08:25:38;95610.69;;;15.34;64.86
32197;BME280;18697;42.770;23.400;2023-10-19T08:28:04;95611.16;;;15.96;63.04
32197;BME280;18697;42.770;23.400;2023-10-19T08:30:31;95603.78;;;16.52;61.04
32197;BME280;18697;42.770;23.400;2023-10-19T08:32:59;95601.41;;;16.99;58.87
32197;BME280;18697;42.770;23.400;2023-10-19T08:35:25;95611.91;;;17.43;57.79
32197;BME280;18697;42.770;23.400;2023-10-19T08:37:51;95598.09;;;17.84;56.75
32197;BME280;18697;42.770;23.400;2023-10-19T08:40:18;95591.66;;;18.12;55.07
32197;BME280;18697;42.770;23.400;2023-10-19T08:42:45;95606.66;;;18.42;54.91
32197;BME280;18697;42.770;23.400;2023-10-19T08:45:11;95587.63;;;18.70;54.27
32197;BME280;18697;42.770;23.400;2023-10-19T08:50:25;95592.16;;;18.85;53.45
32197;BME280;18697;42.770;23.400;2023-10-19T08:52:59;95602.00;;;19.08;53.01
32197;BME280;18697;42.770;23.400;2023-10-19T08:55:25;95602.34;;;18.93;52.80
32197;BME280;18697;42.770;23.400;2023-10-19T08:57:52;95599.41;;;19.10;52.77
32197;BME280;18697;42.770;23.400;2023-10-19T09:00:18;95595.78;;;18.74;52.54
32197;BME280;18697;42.770;23.400;2023-10-19T09:02:45;95598.47;;;18.44;52.46
32197;BME280;18697;42.770;23.400;2023-10-19T09:05:11;95595.44;;;18.25;54.19
32197;BME280;18697;42.770;23.400;2023-10-19T09:07:46;95587.50;;;18.35;54.52
32197;BME280;18697;42.770;23.400;2023-10-19T09:10:16;95581.69;;;18.80;53.18
32197;BME280;18697;42.770;23.400;2023-10-19T09:12:41;95576.47;;;18.43;53.54
32197;BME280;18697;42.770;23.400;2023-10-19T09:15:21;95584.09;;;18.53;53.24
32197;BME280;18697;42.770;23.400;2023-10-19T09:17:46;95568.28;;;18.50;53.92
32197;BME280;18697;42.770;23.400;2023-10-19T09:20:14;95561.53;;;18.70;53.47
32197;BME280;18697;42.770;23.400;2023-10-19T09:22:44;95565.47;;;18.50;52.21
32197;BME280;18697;42.770;23.400;2023-10-19T09:25:09;95549.50;;;18.69;53.61
32197;BME280;18697;42.770;23.400;2023-10-19T09:27:35;95552.72;;;18.38;53.67
32197;BME280;18697;42.770;23.400;2023-10-19T09:30:02;95548.34;;;18.48;53.16
32197;BME280;18697;42.770;23.400;2023-10-19T09:32:29;95548.84;;;18.52;52.52
32197;BME280;18697;42.770;23.400;2023-10-19T09:34:55;95545.00;;;18.50;52.21
32197;BME280;18697;42.770;23.400;2023-10-19T09:37:21;95544.44;;;18.62;51.83
32197;BME280;18697;42.770;23.400;2023-10-19T09:39:46;95539.94;;;18.89;51.32
32197;BME280;18697;42.770;23.400;2023-10-19T09:42:14;95532.91;;;19.07;49.72
32197;BME280;18697;42.770;23.400;2023-10-19T09:44:47;95521.78;;;19.50;50.69
32197;BME280;18697;42.770;23.400;2023-10-19T09:47:38;95518.97;;;19.50;50.60
32197;BME280;18697;42.770;23.400;2023-10-19T09:50:05;95514.06;;;19.56;49.04
32197;BME280;18697;42.770;23.400;2023-10-19T09:52:32;95514.22;;;19.10;50.30
32197;BME280;18697;42.770;23.400;2023-10-19T09:55:12;95514.59;;;19.25;51.75
32197;BME280;18697;42.770;23.400;2023-10-19T09:57:51;95514.00;;;19.32;50.52
32197;BME280;18697;42.770;23.400;2023-10-19T10:00:19;95517.59;;;19.32;50.33
32197;BME280;18697;42.770;23.400;2023-10-19T10:02:51;95502.66;;;19.13;50.11
32197;BME280;18697;42.770;23.400;2023-10-19T10:10:42;95488.66;;;19.62;50.86
32197;BME280;18697;42.770;23.400;2023-10-19T10:15:56;95476.88;;;19.33;49.95
32197;BME280;18697;42.770;23.400;2023-10-19T10:18:31;95467.00;;;19.51;51.58
32197;BME280;18697;42.770;23.400;2023-10-19T10:21:13;95473.22;;;18.84;51.21
32197;BME280;18697;42.770;23.400;2023-10-19T10:23:47;95479.16;;;19.11;50.92
32197;BME280;18697;42.770;23.400;2023-10-19T10:26:15;95480.72;;;19.06;52.02
32197;BME280;18697;42.770;23.400;2023-10-19T10:28:46;95477.72;;;19.28;51.24
32197;BME280;18697;42.770;23.400;2023-10-19T10:31:19;95465.50;;;19.45;51.09
32197;BME280;18697;42.770;23.400;2023-10-19T10:33:53;95466.63;;;19.36;51.89
32197;BME280;18697;42.770;23.400;2023-10-19T10:36:23;95458.53;;;19.27;52.25
32197;BME280;18697;42.770;23.400;2023-10-19T10:38:50;95451.22;;;19.91;51.50
32197;BME280;18697;42.770;23.400;2023-10-19T10:41:25;95437.25;;;20.42;50.30
32197;BME280;18697;42.770;23.400;2023-10-19T10:43:55;95434.25;;;20.53;48.08
32197;BME280;18697;42.770;23.400;2023-10-19T10:46:26;95420.13;;;20.72;47.95
32197;BME280;18697;42.770;23.400;2023-10-19T10:48:52;95417.06;;;21.02;47.89
32197;BME280;18697;42.770;23.400;2023-10-19T10:51:26;95413.38;;;21.07;47.41
32197;BME280;18697;42.770;23.400;2023-10-19T10:53:56;95405.03;;;21.15;46.40
32197;BME280;18697;42.770;23.400;2023-10-19T10:56:23;95404.56;;;21.29;45.51
32197;BME280;18697;42.770;23.400;2023-10-19T10:58:49;95403.03;;;21.55;46.09
32197;BME280;18697;42.770;23.400;2023-10-19T11:01:27;95400.78;;;21.40;45.14
32197;BME280;18697;42.770;23.400;2023-10-19T11:04:05;95385.00;;;21.31;46.42
32197;BME280;18697;42.770;23.400;2023-10-19T11:06:31;95378.81;;;21.33;45.82
32197;BME280;18697;42.770;23.400;2023-10-19T11:08:56;95396.44;;;21.07;44.50
32197;BME280;18697;42.770;23.400;2023-10-19T11:11:22;95384.66;;;21.22;46.26
32197;BME280;18697;42.770;23.400;2023-10-19T11:13:47;95377.13;;;21.11;45.38
32197;BME280;18697;42.770;23.400;2023-10-19T11:16:22;95375.44;;;21.35;45.13
32197;BME280;18697;42.770;23.400;2023-10-19T11:18:48;95368.81;;;21.45;46.11
32197;BME280;18697;42.770;23.400;2023-10-19T11:21:15;95370.75;;;21.63;45.49
32197;BME280;18697;42.770;23.400;2023-10-19T11:23:48;95368.00;;;21.97;45.45
32197;BME280;18697;42.770;23.400;2023-10-19T11:26:17;95347.88;;;22.01;44.77
32197;BME280;18697;42.770;23.400;2023-10-19T11:28:43;95359.88;;;21.94;44.40
32197;BME280;18697;42.770;23.400;2023-10-19T11:31:23;95339.94;;;21.39;44.42
32197;BME280;18697;42.770;23.400;2023-10-19T11:33:53;95345.22;;;21.56;44.09
32197;BME280;18697;42.770;23.400;2023-10-19T11:36:21;95348.47;;;21.73;44.56
32197;BME280;18697;42.770;23.400;2023-10-19T11:38:49;95342.38;;;21.69;43.84
32197;BME280;18697;42.770;23.400;2023-10-19T11:41:23;95343.50;;;21.53;43.57
32197;BME280;18697;42.770;23.400;2023-10-19T11:43:48;95334.53;;;21.88;43.71
32197;BME280;18697;42.770;23.400;2023-10-19T11:46:15;95335.97;;;21.82;43.03
32197;BME280;18697;42.770;23.400;2023-10-19T11:48:41;95316.59;;;21.86;43.67
32197;BME280;18697;42.770;23.400;2023-10-19T11:51:08;95319.78;;;21.56;43.91
32197;BME280;18697;42.770;23.400;2023-10-19T11:53:36;95311.97;;;21.62;45.64
32197;BME280;18697;42.770;23.400;2023-10-19T11:56:04;95323.47;;;21.77;44.84
32197;BME280;18697;42.770;23.400;2023-10-19T11:58:33;95320.59;;;21.30;45.60
32197;BME280;18697;42.770;23.400;2023-10-19T12:01:10;95315.13;;;21.19;46.14
32197;BME280;18697;42.770;23.400;2023-10-19T12:03:39;95309.25;;;21.17;45.34
32197;BME280;18697;42.770;23.400;2023-10-19T12:06:10;95314.25;;;21.63;46.07
32197;BME280;18697;42.770;23.400;2023-10-19T12:08:36;95319.44;;;21.73;44.45
32197;BME280;18697;42.770;23.400;2023-10-19T12:11:03;95318.69;;;21.19;44.58
32197;BME280;18697;42.770;23.400;2023-10-19T12:13:32;95316.97;;;21.56;43.70
32197;BME280;18697;42.770;23.400;2023-10-19T12:15:57;95323.88;;;21.94;44.23
32197;BME280;18697;42.770;23.400;2023-10-19T12:18:24;95318.53;;;22.04;42.88
32197;BME280;18697;42.770;23.400;2023-10-19T12:20:51;95304.50;;;22.33;43.79
32197;BME280;18697;42.770;23.400;2023-10-19T12:23:22;95304.59;;;22.40;41.53
32197;BME280;18697;42.770;23.400;2023-10-19T12:25:49;95293.06;;;22.59;43.00
32197;BME280;18697;42.770;23.400;2023-10-19T12:28:14;95298.97;;;22.82;41.40
32197;BME280;18697;42.770;23.400;2023-10-19T12:30:41;95285.91;;;23.07;42.21
32197;BME280;18697;42.770;23.400;2023-10-19T12:33:06;95287.22;;;23.35;41.51
32197;BME280;18697;42.770;23.400;2023-10-19T12:35:41;95289.00;;;23.45;41.69
32197;BME280;18697;42.770;23.400;2023-10-19T12:38:11;95279.31;;;23.69;41.41
32197;BME280;18697;42.770;23.400;2023-10-19T12:40:45;95286.91;;;23.74;38.94
32197;BME280;18697;42.770;23.400;2023-10-19T12:43:12;95272.75;;;23.89;40.27
32197;BME280;18697;42.770;23.400;2023-10-19T12:45:37;95265.53;;;23.81;39.41
32197;BME280;18697;42.770;23.400;2023-10-19T12:48:04;95273.50;;;23.90;39.96
32197;BME280;18697;42.770;23.400;2023-10-19T12:50:36;95263.84;;;23.85;39.40
32197;BME280;18697;42.770;23.400;2023-10-19T12:53:02;95264.59;;;23.78;39.66
32197;BME280;18697;42.770;23.400;2023-10-19T12:55:28;95261.47;;;24.05;40.01
32197;BME280;18697;42.770;23.400;2023-10-19T12:57:56;95259.44;;;24.20;40.22
32197;BME280;18697;42.770;23.400;2023-10-19T13:00:22;95263.78;;;24.21;39.04
32197;BME280;18697;42.770;23.400;2023-10-19T13:03:07;95258.16;;;24.29;39.56
32197;BME280;18697;42.770;23.400;2023-10-19T13:05:36;95254.47;;;24.06;38.70
32197;BME280;18697;42.770;23.400;2023-10-19T13:08:05;95250.03;;;24.33;39.74
32197;BME280;18697;42.770;23.400;2023-10-19T13:10:33;95233.94;;;24.36;40.23
32197;BME280;18697;42.770;23.400;2023-10-19T13:13:02;95233.00;;;24.33;38.35
32197;BME280;18697;42.770;23.400;2023-10-19T13:15:39;95230.13;;;23.59;40.38
32197;BME280;18697;42.770;23.400;2023-10-19T13:18:08;95230.16;;;23.31;40.44
32197;BME280;18697;42.770;23.400;2023-10-19T13:20:37;95225.97;;;23.24;40.92
32197;BME280;18697;42.770;23.400;2023-10-19T13:23:07;95222.47;;;22.53;42.48